sensor_id;sensor_type;location;lat;lon;timestamp;temperature;humidity
20139;DHT22;10230;51.502;10.800;2023-04-25T00:04:36;7.10;99.90
20139;DHT22;10230;51.502;10.800;2023-04-25T00:09:31;7.30;99.90
20139;DHT22;10230;51.502;10.800;2023-04-25T00:11:57;7.10;99.90
20139;DHT22;10230;51.502;10.800;2023-04-25T00:16:49;7.00;99.90
20139;DHT22;10230;51.502;10.800;2023-04-25T00:19:17;6.90;99.90
20139;DHT22;10230;51.502;10.800;2023-04-25T00:21:42;6.90;99.90
20139;DHT22;10230;51.502;10.800;2023-04-25T00:24:10;6.90;99.90
20139;DHT22;10230;51.502;10.800;2023-04-25T00:26:36;7.00;99.90
20139;DHT22;10230;51.502;10.800;2023-04-25T00:29:02;6.80;99.90
20139;DHT22;10230;51.502;10.800;2023-04-25T00:31:28;6.80;99.90
20139;DHT22;10230;51.502;10.800;2023-04-25T00:36:20;6.80;99.90
20139;DHT22;10230;51.502;10.800;2023-04-25T00:38:46;6.80;99.90
20139;DHT22;10230;51.502;10.800;2023-04-25T00:41:11;6.80;99.90
20139;DHT22;10230;51.502;10.800;2023-04-25T00:43:37;6.80;99.90
20139;DHT22;10230;51.502;10.800;2023-04-25T00:46:03;6.80;99.90
20139;DHT22;10230;51.502;10.800;2023-04-25T00:48:29;6.80;99.90
20139;DHT22;10230;51.502;10.800;2023-04-25T00:50:58;6.80;99.90
20139;DHT22;10230;51.502;10.800;2023-04-25T00:53:25;6.80;99.90
20139;DHT22;10230;51.502;10.800;2023-04-25T00:55:51;6.80;99.90
20139;DHT22;10230;51.502;10.800;2023-04-25T00:58:17;6.80;99.90
20139;DHT22;10230;51.502;10.800;2023-04-25T01:00:47;6.80;99.90
20139;DHT22;10230;51.502;10.800;2023-04-25T01:03:14;6.70;99.90
20139;DHT22;10230;51.502;10.800;2023-04-25T01:05:42;6.70;99.90
20139;DHT22;10230;51.502;10.800;2023-04-25T01:08:08;6.60;99.90
20139;DHT22;10230;51.502;10.800;2023-04-25T01:10:34;6.70;99.90
20139;DHT22;10230;51.502;10.800;2023-04-25T01:12:59;6.60;99.90
20139;DHT22;10230;51.502;10.800;2023-04-25T01:15:25;6.60;99.90
20139;DHT22;10230;51.502;10.800;2023-04-25T01:17:51;6.60;99.90
20139;DHT22;10230;51.502;10.800;2023-04-25T01:20:16;6.60;99.90
20139;DHT22;10230;51.502;10.800;2023-04-25T01:22:43;6.60;99.90
20139;DHT22;10230;51.502;10.800;2023-04-25T01:27:36;6.40;99.90
20139;DHT22;10230;51.502;10.800;2023-04-25T01:42:21;6.30;99.90
20139;DHT22;10230;51.502;10.800;2023-04-25T01:44:47;6.20;99.90
20139;DHT22;10230;51.502;10.800;2023-04-25T01:47:12;6.20;99.90
20139;DHT22;10230;51.502;10.800;2023-04-25T01:49:38;6.20;99.90
20139;DHT22;10230;51.502;10.800;2023-04-25T01:52:04;6.20;99.90
20139;DHT22;10230;51.502;10.800;2023-04-25T01:54:29;6.20;99.90
20139;DHT22;10230;51.502;10.800;2023-04-25T01:56:57;6.20;99.90
20139;DHT22;10230;51.502;10.800;2023-04-25T01:59:22;6.20;99.90
20139;DHT22;10230;51.502;10.800;2023-04-25T02:01:48;6.20;99.90
20139;DHT22;10230;51.502;10.800;2023-04-25T02:04:14;6.20;99.90
20139;DHT22;10230;51.502;10.800;2023-04-25T02:06:39;6.10;99.90
20139;DHT22;10230;51.502;10.800;2023-04-25T02:09:05;6.10;99.90
20139;DHT22;10230;51.502;10.800;2023-04-25T02:11:31;6.10;99.90
20139;DHT22;10230;51.502;10.800;2023-04-25T02:13:56;6.10;99.90
20139;DHT22;10230;51.502;10.800;2023-04-25T02:16:22;6.10;99.90
20139;DHT22;10230;51.502;10.800;2023-04-25T02:18:47;6.20;99.90
20139;DHT22;10230;51.502;10.800;2023-04-25T02:21:13;6.20;99.90
20139;DHT22;10230;51.502;10.800;2023-04-25T02:23:39;6.30;99.90
20139;DHT22;10230;51.502;10.800;2023-04-25T02:26:05;6.30;99.90
20139;DHT22;10230;51.502;10.800;2023-04-25T02:28:30;6.40;99.90
20139;DHT22;10230;51.502;10.800;2023-04-25T02:30:56;6.40;99.90
20139;DHT22;10230;51.502;10.800;2023-04-25T02:33:22;6.50;99.90
20139;DHT22;10230;51.502;10.800;2023-04-25T02:35:47;6.50;99.90
20139;DHT22;10230;51.502;10.800;2023-04-25T02:38:13;6.60;99.90
20139;DHT22;10230;51.502;10.800;2023-04-25T02:40:39;6.60;99.90
20139;DHT22;10230;51.502;10.800;2023-04-25T02:43:04;6.70;99.90
20139;DHT22;10230;51.502;10.800;2023-04-25T02:45:30;6.80;99.90
20139;DHT22;10230;51.502;10.800;2023-04-25T02:47:56;6.90;99.90
20139;DHT22;10230;51.502;10.800;2023-04-25T02:50:21;7.00;99.90
20139;DHT22;10230;51.502;10.800;2023-04-25T02:52:47;7.00;99.90
20139;DHT22;10230;51.502;10.800;2023-04-25T02:55:13;7.00;99.90
20139;DHT22;10230;51.502;10.800;2023-04-25T02:57:39;7.00;99.90
20139;DHT22;10230;51.502;10.800;2023-04-25T03:00:05;6.90;99.90
20139;DHT22;10230;51.502;10.800;2023-04-25T03:02:31;6.90;99.90
20139;DHT22;10230;51.502;10.800;2023-04-25T03:04:56;6.80;99.90
20139;DHT22;10230;51.502;10.800;2023-04-25T03:07:22;6.80;99.90
20139;DHT22;10230;51.502;10.800;2023-04-25T03:09:48;6.70;99.90
20139;DHT22;10230;51.502;10.800;2023-04-25T03:12:13;6.70;99.90
20139;DHT22;10230;51.502;10.800;2023-04-25T03:14:39;6.70;99.90
20139;DHT22;10230;51.502;10.800;2023-04-25T03:17:05;6.60;99.90
20139;DHT22;10230;51.502;10.800;2023-04-25T03:19:30;6.60;99.90
20139;DHT22;10230;51.502;10.800;2023-04-25T03:21:56;6.60;99.90
20139;DHT22;10230;51.502;10.800;2023-04-25T03:24:22;6.60;99.90
20139;DHT22;10230;51.502;10.800;2023-04-25T03:26:47;6.60;99.90
20139;DHT22;10230;51.502;10.800;2023-04-25T03:29:13;6.60;99.90
20139;DHT22;10230;51.502;10.800;2023-04-25T03:31:38;6.60;99.90
20139;DHT22;10230;51.502;10.800;2023-04-25T03:34:04;6.60;99.90
20139;DHT22;10230;51.502;10.800;2023-04-25T03:36:30;6.60;99.90
20139;DHT22;10230;51.502;10.800;2023-04-25T03:38:55;6.60;99.90
20139;DHT22;10230;51.502;10.800;2023-04-25T03:41:21;6.60;99.90
20139;DHT22;10230;51.502;10.800;2023-04-25T03:43:47;6.70;99.90
20139;DHT22;10230;51.502;10.800;2023-04-25T03:46:12;6.70;99.90
20139;DHT22;10230;51.502;10.800;2023-04-25T03:48:38;6.80;99.90
20139;DHT22;10230;51.502;10.800;2023-04-25T03:51:04;6.80;99.90
20139;DHT22;10230;51.502;10.800;2023-04-25T03:53:30;6.80;99.90
20139;DHT22;10230;51.502;10.800;2023-04-25T03:55:55;6.80;99.90
20139;DHT22;10230;51.502;10.800;2023-04-25T03:58:21;6.80;99.90
20139;DHT22;10230;51.502;10.800;2023-04-25T04:00:48;6.90;99.90
20139;DHT22;10230;51.502;10.800;2023-04-25T04:03:14;6.90;99.90
20139;DHT22;10230;51.502;10.800;2023-04-25T04:05:39;6.90;99.90
20139;DHT22;10230;51.502;10.800;2023-04-25T04:08:06;6.90;99.90
20139;DHT22;10230;51.502;10.800;2023-04-25T04:10:32;6.90;99.90
20139;DHT22;10230;51.502;10.800;2023-04-25T04:12:57;6.90;99.90
20139;DHT22;10230;51.502;10.800;2023-04-25T04:15:23;6.90;99.90
20139;DHT22;10230;51.502;10.800;2023-04-25T04:17:49;7.00;99.90
20139;DHT22;10230;51.502;10.800;2023-04-25T04:20:14;7.00;99.90
20139;DHT22;10230;51.502;10.800;2023-04-25T04:22:40;7.10;99.90
20139;DHT22;10230;51.502;10.800;2023-04-25T04:25:06;7.20;99.90
20139;DHT22;10230;51.502;10.800;2023-04-25T04:27:32;7.30;99.90
20139;DHT22;10230;51.502;10.800;2023-04-25T04:29:58;7.40;99.90
20139;DHT22;10230;51.502;10.800;2023-04-25T04:32:24;7.50;99.90
20139;DHT22;10230;51.502;10.800;2023-04-25T04:34:50;7.50;99.90
20139;DHT22;10230;51.502;10.800;2023-04-25T04:37:17;7.60;99.90
20139;DHT22;10230;51.502;10.800;2023-04-25T04:39:43;7.60;99.90
20139;DHT22;10230;51.502;10.800;2023-04-25T04:42:09;7.70;99.90
20139;DHT22;10230;51.502;10.800;2023-04-25T04:44:36;7.70;99.90
20139;DHT22;10230;51.502;10.800;2023-04-25T04:47:04;7.70;99.90
20139;DHT22;10230;51.502;10.800;2023-04-25T04:49:32;7.80;99.90
20139;DHT22;10230;51.502;10.800;2023-04-25T04:51:57;7.80;99.90
20139;DHT22;10230;51.502;10.800;2023-04-25T04:54:25;7.80;99.90
20139;DHT22;10230;51.502;10.800;2023-04-25T04:56:50;7.80;99.90
20139;DHT22;10230;51.502;10.800;2023-04-25T04:59:17;7.80;99.90
20139;DHT22;10230;51.502;10.800;2023-04-25T05:01:43;7.80;99.90
20139;DHT22;10230;51.502;10.800;2023-04-25T05:04:08;7.90;99.90
20139;DHT22;10230;51.502;10.800;2023-04-25T05:06:34;7.90;99.90
20139;DHT22;10230;51.502;10.800;2023-04-25T05:09:00;7.90;99.90
20139;DHT22;10230;51.502;10.800;2023-04-25T05:11:25;7.80;99.90
20139;DHT22;10230;51.502;10.800;2023-04-25T05:13:52;7.80;99.90
20139;DHT22;10230;51.502;10.800;2023-04-25T05:16:18;7.70;99.90
20139;DHT22;10230;51.502;10.800;2023-04-25T05:18:46;7.70;99.90
20139;DHT22;10230;51.502;10.800;2023-04-25T05:21:12;7.70;99.90
20139;DHT22;10230;51.502;10.800;2023-04-25T05:23:37;7.70;99.90
20139;DHT22;10230;51.502;10.800;2023-04-25T05:26:03;7.70;99.90
20139;DHT22;10230;51.502;10.800;2023-04-25T05:28:29;7.80;99.90
20139;DHT22;10230;51.502;10.800;2023-04-25T05:30:56;7.80;99.90
20139;DHT22;10230;51.502;10.800;2023-04-25T05:33:22;7.80;99.90
20139;DHT22;10230;51.502;10.800;2023-04-25T05:35:48;7.80;99.90
20139;DHT22;10230;51.502;10.800;2023-04-25T05:38:14;7.70;99.90
20139;DHT22;10230;51.502;10.800;2023-04-25T05:40:40;7.70;99.90
20139;DHT22;10230;51.502;10.800;2023-04-25T05:43:06;7.70;99.90
20139;DHT22;10230;51.502;10.800;2023-04-25T05:45:32;7.80;99.90
20139;DHT22;10230;51.502;10.800;2023-04-25T05:47:58;7.80;99.90
20139;DHT22;10230;51.502;10.800;2023-04-25T05:50:23;7.90;99.90
20139;DHT22;10230;51.502;10.800;2023-04-25T05:52:50;7.90;99.90
20139;DHT22;10230;51.502;10.800;2023-04-25T05:55:16;8.00;99.90
20139;DHT22;10230;51.502;10.800;2023-04-25T05:57:41;8.10;99.90
20139;DHT22;10230;51.502;10.800;2023-04-25T06:00:13;8.30;99.90
20139;DHT22;10230;51.502;10.800;2023-04-25T06:02:40;8.60;99.90
20139;DHT22;10230;51.502;10.800;2023-04-25T10:22:44;25.20;40.10
20139;DHT22;10230;51.502;10.800;2023-04-25T17:30:16;10.90;90.70
20139;DHT22;10230;51.502;10.800;2023-04-25T17:32:42;10.60;90.60
20139;DHT22;10230;51.502;10.800;2023-04-25T17:35:08;10.50;90.90
20139;DHT22;10230;51.502;10.800;2023-04-25T17:37:33;10.40;91.00
20139;DHT22;10230;51.502;10.800;2023-04-25T17:39:59;10.30;91.40
20139;DHT22;10230;51.502;10.800;2023-04-25T17:42:25;10.20;92.30
20139;DHT22;10230;51.502;10.800;2023-04-25T17:44:52;10.00;92.80
20139;DHT22;10230;51.502;10.800;2023-04-25T17:47:20;9.90;93.50
20139;DHT22;10230;51.502;10.800;2023-04-25T17:49:46;9.80;94.10
20139;DHT22;10230;51.502;10.800;2023-04-25T17:52:11;9.70;94.60
20139;DHT22;10230;51.502;10.800;2023-04-25T17:54:37;9.60;95.20
20139;DHT22;10230;51.502;10.800;2023-04-25T17:57:03;9.50;95.80
20139;DHT22;10230;51.502;10.800;2023-04-25T17:59:29;9.40;96.60
20139;DHT22;10230;51.502;10.800;2023-04-25T18:01:55;9.30;97.50
20139;DHT22;10230;51.502;10.800;2023-04-25T18:14:10;8.70;99.90
20139;DHT22;10230;51.502;10.800;2023-04-25T18:16:50;8.60;99.90
20139;DHT22;10230;51.502;10.800;2023-04-25T18:19:19;8.50;99.90
20139;DHT22;10230;51.502;10.800;2023-04-25T18:21:53;8.40;99.90
20139;DHT22;10230;51.502;10.800;2023-04-25T18:24:23;8.30;99.90
20139;DHT22;10230;51.502;10.800;2023-04-25T18:29:19;8.10;99.90
20139;DHT22;10230;51.502;10.800;2023-04-25T18:31:45;8.00;99.90
20139;DHT22;10230;51.502;10.800;2023-04-25T18:34:11;8.00;99.90
20139;DHT22;10230;51.502;10.800;2023-04-25T18:36:37;7.90;99.90
20139;DHT22;10230;51.502;10.800;2023-04-25T18:39:04;7.90;99.90
20139;DHT22;10230;51.502;10.800;2023-04-25T18:41:34;7.80;99.90
20139;DHT22;10230;51.502;10.800;2023-04-25T18:44:00;7.80;99.90
20139;DHT22;10230;51.502;10.800;2023-04-25T18:46:29;7.80;99.90
20139;DHT22;10230;51.502;10.800;2023-04-25T18:48:55;7.80;99.90
20139;DHT22;10230;51.502;10.800;2023-04-25T18:51:22;7.90;99.90
20139;DHT22;10230;51.502;10.800;2023-04-25T18:53:48;8.00;99.90
20139;DHT22;10230;51.502;10.800;2023-04-25T18:56:14;8.00;99.90
20139;DHT22;10230;51.502;10.800;2023-04-25T18:58:41;8.00;99.90
20139;DHT22;10230;51.502;10.800;2023-04-25T19:01:06;8.00;99.90
20139;DHT22;10230;51.502;10.800;2023-04-25T19:03:33;8.00;99.90
20139;DHT22;10230;51.502;10.800;2023-04-25T19:06:00;8.00;99.90
20139;DHT22;10230;51.502;10.800;2023-04-25T19:08:25;8.00;99.90
20139;DHT22;10230;51.502;10.800;2023-04-25T19:10:52;8.00;99.90
20139;DHT22;10230;51.502;10.800;2023-04-25T19:13:21;7.90;99.90
20139;DHT22;10230;51.502;10.800;2023-04-25T19:15:47;7.80;99.90
20139;DHT22;10230;51.502;10.800;2023-04-25T19:18:13;7.70;99.90
20139;DHT22;10230;51.502;10.800;2023-04-25T19:20:42;7.70;99.90
20139;DHT22;10230;51.502;10.800;2023-04-25T19:23:08;7.60;99.90
20139;DHT22;10230;51.502;10.800;2023-04-25T19:25:35;7.50;99.90
20139;DHT22;10230;51.502;10.800;2023-04-25T19:30:27;7.30;99.90
20139;DHT22;10230;51.502;10.800;2023-04-25T19:32:54;7.20;99.90
20139;DHT22;10230;51.502;10.800;2023-04-25T19:35:21;7.00;99.90
20139;DHT22;10230;51.502;10.800;2023-04-25T19:37:48;7.00;99.90
20139;DHT22;10230;51.502;10.800;2023-04-25T19:42:41;6.80;99.90
20139;DHT22;10230;51.502;10.800;2023-04-25T19:45:07;6.70;99.90
20139;DHT22;10230;51.502;10.800;2023-04-25T19:47:34;6.60;99.90
20139;DHT22;10230;51.502;10.800;2023-04-25T19:50:03;6.50;99.90
20139;DHT22;10230;51.502;10.800;2023-04-25T19:52:30;6.50;99.90
20139;DHT22;10230;51.502;10.800;2023-04-25T19:54:57;6.40;99.90
20139;DHT22;10230;51.502;10.800;2023-04-25T19:57:27;6.40;99.90
20139;DHT22;10230;51.502;10.800;2023-04-25T19:59:57;6.40;99.90
20139;DHT22;10230;51.502;10.800;2023-04-25T20:02:23;6.30;99.90
20139;DHT22;10230;51.502;10.800;2023-04-25T20:04:49;6.20;99.90
20139;DHT22;10230;51.502;10.800;2023-04-25T20:07:14;6.20;99.90
20139;DHT22;10230;51.502;10.800;2023-04-25T20:09:40;6.10;99.90
20139;DHT22;10230;51.502;10.800;2023-04-25T20:12:06;6.10;99.90
20139;DHT22;10230;51.502;10.800;2023-04-25T20:14:32;6.10;99.90
20139;DHT22;10230;51.502;10.800;2023-04-25T20:16:57;6.10;99.90
20139;DHT22;10230;51.502;10.800;2023-04-25T20:19:23;6.00;99.90
20139;DHT22;10230;51.502;10.800;2023-04-25T20:21:49;6.00;99.90
20139;DHT22;10230;51.502;10.800;2023-04-25T20:24:14;6.00;99.90
20139;DHT22;10230;51.502;10.800;2023-04-25T20:26:40;6.00;99.90
20139;DHT22;10230;51.502;10.800;2023-04-25T20:29:06;6.00;99.90
20139;DHT22;10230;51.502;10.800;2023-04-25T20:31:32;6.00;99.90
20139;DHT22;10230;51.502;10.800;2023-04-25T20:34:01;6.10;99.90
20139;DHT22;10230;51.502;10.800;2023-04-25T20:36:27;6.10;99.90
20139;DHT22;10230;51.502;10.800;2023-04-25T20:38:53;6.10;99.90
20139;DHT22;10230;51.502;10.800;2023-04-25T20:41:18;6.10;99.90
20139;DHT22;10230;51.502;10.800;2023-04-25T20:43:45;6.20;99.90
20139;DHT22;10230;51.502;10.800;2023-04-25T20:46:13;6.20;99.90
20139;DHT22;10230;51.502;10.800;2023-04-25T20:48:38;6.30;99.90
20139;DHT22;10230;51.502;10.800;2023-04-25T20:51:04;6.30;99.90
20139;DHT22;10230;51.502;10.800;2023-04-25T20:53:31;6.30;99.90
20139;DHT22;10230;51.502;10.800;2023-04-25T20:55:57;6.40;99.90
20139;DHT22;10230;51.502;10.800;2023-04-25T20:58:24;6.50;99.90
20139;DHT22;10230;51.502;10.800;2023-04-25T21:00:51;6.50;99.90
20139;DHT22;10230;51.502;10.800;2023-04-25T21:03:17;6.60;99.90
20139;DHT22;10230;51.502;10.800;2023-04-25T21:05:43;6.60;99.90
20139;DHT22;10230;51.502;10.800;2023-04-25T21:08:08;6.60;99.90
20139;DHT22;10230;51.502;10.800;2023-04-25T21:10:34;6.70;99.90
20139;DHT22;10230;51.502;10.800;2023-04-25T21:13:00;6.70;99.90
20139;DHT22;10230;51.502;10.800;2023-04-25T21:15:26;6.70;99.90
20139;DHT22;10230;51.502;10.800;2023-04-25T21:17:52;6.70;99.90
20139;DHT22;10230;51.502;10.800;2023-04-25T21:20:20;6.70;99.90
20139;DHT22;10230;51.502;10.800;2023-04-25T21:22:47;6.60;99.90
20139;DHT22;10230;51.502;10.800;2023-04-25T21:25:16;6.60;99.90
20139;DHT22;10230;51.502;10.800;2023-04-25T21:27:50;6.60;99.90
20139;DHT22;10230;51.502;10.800;2023-04-25T21:30:19;6.50;99.90
20139;DHT22;10230;51.502;10.800;2023-04-25T21:32:46;6.40;99.90
20139;DHT22;10230;51.502;10.800;2023-04-25T21:35:13;6.40;99.90
20139;DHT22;10230;51.502;10.800;2023-04-25T21:37:39;6.30;99.90
20139;DHT22;10230;51.502;10.800;2023-04-25T21:40:06;6.20;99.90
20139;DHT22;10230;51.502;10.800;2023-04-25T21:42:32;6.20;99.90
20139;DHT22;10230;51.502;10.800;2023-04-25T21:44:58;6.10;99.90
20139;DHT22;10230;51.502;10.800;2023-04-25T21:47:23;6.10;99.90
20139;DHT22;10230;51.502;10.800;2023-04-25T21:49:49;6.00;99.90
20139;DHT22;10230;51.502;10.800;2023-04-25T21:52:15;6.00;99.90
20139;DHT22;10230;51.502;10.800;2023-04-25T21:54:41;5.90;99.90
20139;DHT22;10230;51.502;10.800;2023-04-25T21:57:07;5.90;99.90
20139;DHT22;10230;51.502;10.800;2023-04-25T21:59:33;5.80;99.90
20139;DHT22;10230;51.502;10.800;2023-04-25T22:02:00;5.80;99.90
20139;DHT22;10230;51.502;10.800;2023-04-25T22:04:26;5.70;99.90
20139;DHT22;10230;51.502;10.800;2023-04-25T22:06:51;5.70;99.90
20139;DHT22;10230;51.502;10.800;2023-04-25T22:09:17;5.70;99.90
20139;DHT22;10230;51.502;10.800;2023-04-25T22:11:44;5.70;99.90
20139;DHT22;10230;51.502;10.800;2023-04-25T22:14:09;5.60;99.90
20139;DHT22;10230;51.502;10.800;2023-04-25T22:16:36;5.60;99.90
20139;DHT22;10230;51.502;10.800;2023-04-25T22:19:03;5.60;99.90
20139;DHT22;10230;51.502;10.800;2023-04-25T22:21:29;5.60;99.90
20139;DHT22;10230;51.502;10.800;2023-04-25T22:23:55;5.60;99.90
20139;DHT22;10230;51.502;10.800;2023-04-25T22:26:22;5.50;99.90
20139;DHT22;10230;51.502;10.800;2023-04-25T22:28:48;5.50;99.90
20139;DHT22;10230;51.502;10.800;2023-04-25T22:31:14;5.50;99.90
20139;DHT22;10230;51.502;10.800;2023-04-25T22:33:40;5.50;99.90
20139;DHT22;10230;51.502;10.800;2023-04-25T22:36:06;5.50;99.90
20139;DHT22;10230;51.502;10.800;2023-04-25T22:38:32;5.40;99.90
20139;DHT22;10230;51.502;10.800;2023-04-25T22:40:57;5.50;99.90
20139;DHT22;10230;51.502;10.800;2023-04-25T22:43:23;5.40;99.90
20139;DHT22;10230;51.502;10.800;2023-04-25T22:45:49;5.40;99.90
20139;DHT22;10230;51.502;10.800;2023-04-25T22:48:14;5.40;99.90
20139;DHT22;10230;51.502;10.800;2023-04-25T22:50:40;5.30;99.90
20139;DHT22;10230;51.502;10.800;2023-04-25T22:53:06;5.30;99.90
20139;DHT22;10230;51.502;10.800;2023-04-25T22:55:33;5.30;99.90
20139;DHT22;10230;51.502;10.800;2023-04-25T22:58:02;5.20;99.90
20139;DHT22;10230;51.502;10.800;2023-04-25T23:00:28;5.20;99.90
20139;DHT22;10230;51.502;10.800;2023-04-25T23:02:55;5.20;99.90
20139;DHT22;10230;51.502;10.800;2023-04-25T23:05:20;5.10;99.90
20139;DHT22;10230;51.502;10.800;2023-04-25T23:07:48;5.10;99.90
20139;DHT22;10230;51.502;10.800;2023-04-25T23:10:14;5.00;99.90
20139;DHT22;10230;51.502;10.800;2023-04-25T23:12:40;5.00;99.90
20139;DHT22;10230;51.502;10.800;2023-04-25T23:15:06;5.00;99.90
20139;DHT22;10230;51.502;10.800;2023-04-25T23:17:32;4.90;99.90
20139;DHT22;10230;51.502;10.800;2023-04-25T23:19:58;4.90;99.90
20139;DHT22;10230;51.502;10.800;2023-04-25T23:22:23;4.80;99.90
20139;DHT22;10230;51.502;10.800;2023-04-25T23:24:49;4.80;99.90
20139;DHT22;10230;51.502;10.800;2023-04-25T23:27:15;4.80;99.90
20139;DHT22;10230;51.502;10.800;2023-04-25T23:29:42;4.70;99.90
20139;DHT22;10230;51.502;10.800;2023-04-25T23:32:08;4.70;99.90
20139;DHT22;10230;51.502;10.800;2023-04-25T23:34:33;4.70;99.90
20139;DHT22;10230;51.502;10.800;2023-04-25T23:36:59;4.60;99.90
20139;DHT22;10230;51.502;10.800;2023-04-25T23:39:29;4.60;99.90
20139;DHT22;10230;51.502;10.800;2023-04-25T23:41:55;4.60;99.90
20139;DHT22;10230;51.502;10.800;2023-04-25T23:44:22;4.60;99.90
20139;DHT22;10230;51.502;10.800;2023-04-25T23:46:48;4.60;99.90
20139;DHT22;10230;51.502;10.800;2023-04-25T23:49:13;4.60;99.90
20139;DHT22;10230;51.502;10.800;2023-04-25T23:51:39;4.60;99.90
20139;DHT22;10230;51.502;10.800;2023-04-25T23:54:04;4.60;99.90
20139;DHT22;10230;51.502;10.800;2023-04-25T23:56:30;4.60;99.90
20139;DHT22;10230;51.502;10.800;2023-04-25T23:58:56;4.60;99.90
